createdAt,value
2019-02-15T00:02:04.770Z,78.56
2019-02-15T00:04:54.656Z,78.58
2019-02-15T00:07:45.621Z,78.46
2019-02-15T00:10:35.503Z,78.48
2019-02-15T00:13:42.026Z,78.41
2019-02-15T00:16:31.713Z,78.34
2019-02-15T00:19:27.590Z,77.87
2019-02-15T00:22:17.516Z,78.67
2019-02-15T00:25:06.712Z,79.91
2019-02-15T00:27:56.555Z,80.74
2019-02-15T00:30:45.917Z,80.88
2019-02-15T00:33:35.847Z,80.22
2019-02-15T00:36:25.349Z,79.58
2019-02-15T00:39:15.014Z,78.87
2019-02-15T00:42:04.471Z,78.12
2019-02-15T00:44:54.122Z,78.45
2019-02-15T00:47:48.597Z,78.22
2019-02-15T00:51:00.187Z,78.41
2019-02-15T00:54:03.814Z,78.40
2019-02-15T00:57:02.484Z,77.99
2019-02-15T01:00:11.184Z,78.01
2019-02-15T01:03:18.151Z,78.20
2019-02-15T01:06:35.836Z,78.18
2019-02-15T01:09:43.854Z,78.50
2019-02-15T01:12:58.006Z,78.18
2019-02-15T01:15:47.489Z,78.65
2019-02-15T01:18:37.662Z,79.45
2019-02-15T01:21:27.035Z,80.19
2019-02-15T01:24:16.303Z,80.57
2019-02-15T01:27:17.689Z,80.20
2019-02-15T01:30:26.449Z,79.36
2019-02-15T01:33:32.950Z,80.12
2019-02-15T01:36:50.353Z,81.21
2019-02-15T01:39:57.306Z,81.20
2019-02-15T01:42:59.607Z,81.47
2019-02-15T01:45:54.845Z,81.38
2019-02-15T01:48:44.245Z,80.62
2019-02-15T01:51:33.619Z,80.36
2019-02-15T01:54:22.920Z,80.18
2019-02-15T01:57:14.735Z,80.25
2019-02-15T02:00:04.195Z,79.75
2019-02-15T02:02:53.697Z,80.03
2019-02-15T02:05:43.137Z,79.90
2019-02-15T02:08:33.315Z,79.61
2019-02-15T02:11:22.681Z,80.10
2019-02-15T02:14:12.487Z,79.95
2019-02-15T02:17:01.794Z,79.47
2019-02-15T02:19:51.544Z,79.03
2019-02-15T02:22:40.798Z,79.12
2019-02-15T02:25:30.641Z,78.90
2019-02-15T02:28:20.160Z,79.53
2019-02-15T02:31:09.389Z,78.81
2019-02-15T02:34:01.457Z,79.75
2019-02-15T02:36:55.237Z,79.69
2019-02-15T02:39:44.543Z,79.58
2019-02-15T02:42:33.768Z,78.67
2019-02-15T02:45:23.288Z,79.58
2019-02-15T02:48:12.782Z,79.76
2019-02-15T02:51:03.014Z,78.89
2019-02-15T02:53:52.418Z,78.10
2019-02-15T02:56:41.616Z,79.27
2019-02-15T02:59:30.736Z,79.34
2019-02-15T03:02:25.703Z,79.02
2019-02-15T03:05:15.944Z,78.50
2019-02-15T03:08:05.072Z,78.37
2019-02-15T03:10:54.687Z,78.21
2019-02-15T03:13:44.117Z,77.91
2019-02-15T03:16:34.230Z,77.27
2019-02-15T03:19:23.771Z,77.41
2019-02-15T03:22:12.967Z,78.09
2019-02-15T03:25:02.413Z,78.57
2019-02-15T03:27:52.006Z,78.28
2019-02-15T03:30:41.607Z,78.34
2019-02-15T03:33:31.081Z,78.26
2019-02-15T03:36:37.913Z,78.35
2019-02-15T03:39:35.384Z,78.82
2019-02-15T03:42:25.822Z,79.06
2019-02-15T03:45:16.991Z,79.33
2019-02-15T03:48:05.863Z,79.28
2019-02-15T03:50:55.384Z,78.95
2019-02-15T03:53:44.911Z,78.66
2019-02-15T03:56:34.087Z,79.51
2019-02-15T03:59:23.036Z,79.32
2019-02-15T04:02:12.525Z,78.94
2019-02-15T04:05:02.106Z,78.71
2019-02-15T04:07:51.533Z,78.83
2019-02-15T04:10:41.108Z,78.74
2019-02-15T04:13:30.930Z,78.70
2019-02-15T04:16:20.321Z,78.55
2019-02-15T04:19:10.320Z,78.37
2019-02-15T04:21:59.496Z,78.31
2019-02-15T04:24:48.657Z,78.19
2019-02-15T04:27:38.396Z,78.66
2019-02-15T04:30:28.011Z,78.52
2019-02-15T04:33:17.183Z,78.84
2019-02-15T04:36:06.893Z,78.97
2019-02-15T04:38:56.370Z,78.95
2019-02-15T04:41:45.854Z,79.49
2019-02-15T04:44:42.587Z,79.61
2019-02-15T04:47:26.974Z,79.39
2019-02-15T04:50:16.927Z,79.71
2019-02-15T04:53:06.094Z,79.55
2019-02-15T04:55:55.308Z,79.92
2019-02-15T04:58:44.872Z,80.34
2019-02-15T05:01:34.933Z,80.19
2019-02-15T05:04:24.340Z,80.10
2019-02-15T05:07:16.456Z,79.99
2019-02-15T05:10:06.544Z,79.72
2019-02-15T05:12:55.984Z,79.46
2019-02-15T05:15:45.875Z,79.16
2019-02-15T05:18:35.032Z,79.26
2019-02-15T05:21:24.403Z,78.77
2019-02-15T05:24:14.318Z,79.29
2019-02-15T05:27:03.523Z,79.16
2019-02-15T05:29:53.295Z,79.28
2019-02-15T05:32:42.787Z,79.28
2019-02-15T05:35:32.527Z,79.29
2019-02-15T05:38:22.023Z,79.50
2019-02-15T05:41:14.253Z,79.30
2019-02-15T05:44:04.745Z,79.09
2019-02-15T05:46:54.289Z,79.43
2019-02-15T05:49:43.836Z,79.66
2019-02-15T05:52:33.654Z,79.34
2019-02-15T05:55:23.082Z,79.44
2019-02-15T05:58:12.976Z,79.87
2019-02-15T06:01:02.358Z,79.32
2019-02-15T06:03:52.016Z,79.73
2019-02-15T06:06:41.261Z,80.43
2019-02-15T06:09:30.810Z,79.99
2019-02-15T06:12:20.486Z,79.99
2019-02-15T06:15:15.318Z,80.28
2019-02-15T06:18:01.230Z,80.52
2019-02-15T06:20:50.612Z,80.41
2019-02-15T06:23:40.860Z,80.44
2019-02-15T06:26:31.786Z,80.38
2019-02-15T06:29:20.775Z,80.26
2019-02-15T06:32:10.314Z,80.29
2019-02-15T06:34:59.924Z,80.37
2019-02-15T06:37:49.492Z,80.23
2019-02-15T06:40:39.219Z,80.26
2019-02-15T06:43:28.719Z,79.96
2019-02-15T06:46:17.859Z,79.87
2019-02-15T06:49:07.468Z,79.94
2019-02-15T06:51:57.460Z,80.28
2019-02-15T06:54:46.851Z,80.23
2019-02-15T06:57:36.578Z,79.88
2019-02-15T07:00:55.553Z,80.16
2019-02-15T07:04:16.493Z,80.24
2019-02-15T07:07:05.981Z,80.05
2019-02-15T07:09:55.628Z,79.07
2019-02-15T07:12:45.219Z,79.18
2019-02-15T07:15:35.370Z,79.51
2019-02-15T07:18:24.808Z,80.44
2019-02-15T07:21:14.507Z,80.36
2019-02-15T07:24:06.267Z,79.98
2019-02-15T07:26:55.955Z,80.75
2019-02-15T07:29:45.452Z,80.31
2019-02-15T07:32:35.565Z,79.95
2019-02-15T07:35:24.761Z,79.62
2019-02-15T07:38:14.077Z,79.66
2019-02-15T07:41:03.363Z,79.17
2019-02-15T07:43:52.596Z,78.82
2019-02-15T07:46:41.988Z,78.25
2019-02-15T07:49:31.272Z,78.11
2019-02-15T07:52:20.510Z,78.05
2019-02-15T07:55:10.334Z,77.42
2019-02-15T07:58:00.013Z,77.85
2019-02-15T08:00:49.423Z,77.34
2019-02-15T08:03:38.876Z,77.08
2019-02-15T08:06:30.276Z,76.55
2019-02-15T08:09:19.610Z,76.18
2019-02-15T08:12:09.368Z,76.53
2019-02-15T08:14:58.863Z,76.39
2019-02-15T08:17:48.991Z,75.82
2019-02-15T08:20:38.569Z,75.71
2019-02-15T08:23:28.541Z,74.83
2019-02-15T08:26:18.130Z,74.34
2019-02-15T08:29:07.539Z,74.22
2019-02-15T08:31:56.985Z,74.54
2019-02-15T08:34:46.564Z,73.74
2019-02-15T08:37:35.855Z,73.96
2019-02-15T08:40:25.901Z,74.70
2019-02-15T08:43:17.495Z,74.10
2019-02-15T08:49:31.482Z,73.04
2019-02-15T08:52:20.875Z,72.23
2019-02-15T08:55:11.216Z,71.20
2019-02-15T08:58:00.716Z,69.65
2019-02-15T09:00:50.025Z,68.30
2019-02-15T09:03:39.839Z,67.44
2019-02-15T09:06:29.826Z,66.79
2019-02-15T09:09:18.958Z,65.40
2019-02-15T09:12:08.710Z,63.66
2019-02-15T09:14:57.946Z,61.39
2019-02-15T09:17:47.582Z,61.87
2019-02-15T09:20:37.107Z,60.75
2019-02-15T09:23:26.723Z,57.34
2019-02-15T09:26:18.256Z,56.94
2019-02-15T09:29:10.433Z,54.27
2019-02-15T09:31:59.681Z,55.88
2019-02-15T09:34:49.426Z,57.06
2019-02-15T09:37:41.910Z,56.71
2019-02-15T09:40:31.286Z,56.57
2019-02-15T09:43:20.495Z,55.16
2019-02-15T09:46:19.297Z,55.13
2019-02-15T09:49:03.375Z,56.63
2019-02-15T09:51:53.066Z,53.66
2019-02-15T09:54:42.397Z,56.07
2019-02-15T09:57:32.273Z,56.84
2019-02-15T10:00:21.392Z,57.24
2019-02-15T10:03:14.730Z,52.37
2019-02-15T10:06:04.120Z,50.21
2019-02-15T10:08:53.233Z,50.06
2019-02-15T10:11:42.355Z,50.08
2019-02-15T10:14:32.028Z,50.58
2019-02-15T10:17:21.340Z,51.98
2019-02-15T10:20:10.841Z,47.46
2019-02-15T10:23:00.139Z,49.24
2019-02-15T10:25:49.814Z,46.55
2019-02-15T10:28:38.954Z,48.23
2019-02-15T10:31:30.743Z,44.73
2019-02-15T10:34:20.067Z,45.46
2019-02-15T10:37:10.317Z,44.84
2019-02-15T10:39:59.634Z,48.61
2019-02-15T10:42:50.151Z,48.53
2019-02-15T10:45:39.415Z,44.68
2019-02-15T10:48:28.859Z,44.68
2019-02-15T10:51:18.516Z,43.49
2019-02-15T10:54:07.986Z,41.65
2019-02-15T10:56:58.099Z,43.47
2019-02-15T10:59:47.656Z,43.06
2019-02-15T11:02:37.565Z,41.84
2019-02-15T11:05:27.814Z,39.28
2019-02-15T11:08:17.177Z,40.48
2019-02-15T11:11:06.856Z,38.73
2019-02-15T11:13:56.125Z,39.26
2019-02-15T11:16:47.489Z,41.37
2019-02-15T11:19:48.264Z,42.24
2019-02-15T11:22:38.228Z,40.45
2019-02-15T11:25:27.663Z,39.75
2019-02-15T11:28:17.163Z,39.69
2019-02-15T11:31:06.587Z,41.73
2019-02-15T11:33:55.963Z,40.10
2019-02-15T11:36:45.543Z,38.58
2019-02-15T11:39:35.346Z,36.51
2019-02-15T11:42:24.660Z,35.58
2019-02-15T11:45:16.644Z,36.66
2019-02-15T11:48:06.289Z,38.32
2019-02-15T11:50:55.494Z,38.73
2019-02-15T11:53:45.439Z,38.16
2019-02-15T11:56:35.088Z,39.58
2019-02-15T11:59:24.838Z,40.08
2019-02-15T12:02:14.314Z,37.86
2019-02-15T12:05:04.382Z,38.62
2019-02-15T12:07:53.630Z,40.50
2019-02-15T12:10:43.335Z,32.59
2019-02-15T12:13:32.730Z,32.60
2019-02-15T12:16:23.000Z,32.48
2019-02-15T12:19:14.582Z,31.18
2019-02-15T12:22:04.306Z,30.94
2019-02-15T12:24:53.497Z,28.60
2019-02-15T12:27:43.429Z,27.55
2019-02-15T12:30:32.900Z,29.92
2019-02-15T12:33:22.239Z,28.89
2019-02-15T12:36:11.560Z,30.56
2019-02-15T12:39:05.064Z,32.80
2019-02-15T12:41:54.699Z,35.51
2019-02-15T12:44:44.296Z,36.20
2019-02-15T12:47:33.504Z,35.02
2019-02-15T12:50:22.740Z,37.15
2019-02-15T12:53:12.639Z,37.93
2019-02-15T12:56:02.062Z,36.42
2019-02-15T12:58:52.010Z,37.44
2019-02-15T13:01:42.259Z,38.48
2019-02-15T13:04:31.881Z,37.51
2019-02-15T13:07:21.322Z,38.82
2019-02-15T13:10:13.104Z,38.91
2019-02-15T13:13:02.336Z,39.56
2019-02-15T13:15:51.488Z,38.18
2019-02-15T13:18:40.957Z,38.11
2019-02-15T13:21:30.562Z,36.42
2019-02-15T13:24:20.172Z,35.76
2019-02-15T13:27:09.865Z,34.98
2019-02-15T13:29:59.946Z,37.09
2019-02-15T13:32:50.016Z,36.43
2019-02-15T13:35:39.454Z,33.29
2019-02-15T13:38:29.450Z,35.07
2019-02-15T13:41:18.913Z,36.23
2019-02-15T13:44:08.598Z,35.03
2019-02-15T13:46:59.016Z,34.98
2019-02-15T13:49:48.526Z,35.87
2019-02-15T13:52:38.303Z,36.80
2019-02-15T13:55:27.921Z,36.80
2019-02-15T13:58:17.466Z,37.87
2019-02-15T14:01:07.169Z,37.68
2019-02-15T14:03:56.406Z,37.35
2019-02-15T14:06:56.753Z,36.92
2019-02-15T14:09:46.139Z,37.88
2019-02-15T14:12:35.770Z,39.62
2019-02-15T14:15:25.276Z,39.87
2019-02-15T14:18:14.984Z,39.93
2019-02-15T14:21:04.573Z,37.89
2019-02-15T14:23:53.995Z,37.67
2019-02-15T14:26:43.726Z,37.53
2019-02-15T14:29:33.267Z,38.16
2019-02-15T14:32:23.027Z,38.81
2019-02-15T14:35:12.516Z,38.42
2019-02-15T14:38:01.888Z,36.71
2019-02-15T14:40:51.602Z,36.44
2019-02-15T14:43:41.042Z,36.01
2019-02-15T14:46:30.286Z,35.80
2019-02-15T14:49:19.922Z,34.84
2019-02-15T14:52:09.358Z,32.93
2019-02-15T14:54:58.634Z,32.15
2019-02-15T14:57:48.411Z,30.98
2019-02-15T15:00:37.936Z,30.38
2019-02-15T15:03:28.466Z,30.61
2019-02-15T15:06:17.973Z,31.60
2019-02-15T15:09:07.834Z,29.03
2019-02-15T15:11:57.273Z,30.82
2019-02-15T15:14:47.143Z,29.70
2019-02-15T15:17:36.539Z,31.63
2019-02-15T15:20:26.113Z,34.10
2019-02-15T15:23:15.939Z,34.94
2019-02-15T15:26:11.548Z,34.27
2019-02-15T15:28:56.274Z,34.98
2019-02-15T15:31:45.610Z,33.48
2019-02-15T15:34:35.040Z,36.27
2019-02-15T15:37:24.810Z,39.08
2019-02-15T15:40:14.835Z,39.32
2019-02-15T15:43:04.970Z,40.41
2019-02-15T15:45:54.920Z,44.65
2019-02-15T15:48:44.425Z,47.02
2019-02-15T15:51:34.086Z,49.84
2019-02-15T15:54:23.538Z,49.75
2019-02-15T15:57:13.276Z,49.80
2019-02-15T16:00:02.602Z,51.92
2019-02-15T16:02:52.491Z,52.09
2019-02-15T16:05:41.695Z,52.59
2019-02-15T16:08:31.681Z,52.14
2019-02-15T16:11:21.244Z,52.42
2019-02-15T16:14:10.872Z,53.23
2019-02-15T16:17:00.377Z,53.99
2019-02-15T16:19:50.289Z,54.79
2019-02-15T16:22:40.155Z,56.71
2019-02-15T16:25:29.715Z,56.28
2019-02-15T16:28:19.362Z,56.54
2019-02-15T16:31:09.600Z,56.90
2019-02-15T16:33:59.075Z,56.58
2019-02-15T16:36:48.694Z,57.20
2019-02-15T16:39:38.884Z,56.72
2019-02-15T16:42:28.507Z,58.39
2019-02-15T16:45:17.999Z,58.04
2019-02-15T16:48:07.441Z,59.34
2019-02-15T16:50:57.334Z,58.52
2019-02-15T16:53:47.259Z,58.68
2019-02-15T16:56:36.458Z,59.73
2019-02-15T16:59:26.510Z,59.54
2019-02-15T17:02:16.331Z,58.99
2019-02-15T17:05:06.269Z,59.50
2019-02-15T17:07:55.642Z,59.40
2019-02-15T17:10:45.288Z,57.84
2019-02-15T17:13:34.844Z,56.77
2019-02-15T17:16:24.469Z,57.27
2019-02-15T17:19:17.425Z,57.64
2019-02-15T17:22:07.428Z,56.97
2019-02-15T17:24:57.111Z,57.42
2019-02-15T17:27:46.421Z,57.39
2019-02-15T17:30:36.897Z,57.50
2019-02-15T17:33:26.067Z,58.46
2019-02-15T17:36:15.660Z,57.70
2019-02-15T17:39:06.635Z,57.65
2019-02-15T17:41:56.224Z,57.62
2019-02-15T17:44:45.517Z,57.52
2019-02-15T17:47:35.608Z,59.00
2019-02-15T17:50:24.805Z,59.68
2019-02-15T17:53:21.829Z,58.56
2019-02-15T17:56:11.517Z,58.69
2019-02-15T17:59:02.809Z,57.65
2019-02-15T18:01:52.747Z,57.70
2019-02-15T18:04:42.643Z,58.13
2019-02-15T18:07:31.764Z,57.75
2019-02-15T18:10:20.997Z,58.10
2019-02-15T18:13:10.774Z,58.66
2019-02-15T18:16:01.133Z,59.08
2019-02-15T18:18:50.646Z,59.15
2019-02-15T18:21:39.878Z,59.18
2019-02-15T18:24:29.563Z,58.83
2019-02-15T18:27:18.805Z,58.51
2019-02-15T18:30:09.006Z,58.58
2019-02-15T18:32:58.665Z,58.72
2019-02-15T18:35:48.284Z,58.94
2019-02-15T18:38:38.075Z,59.57
2019-02-15T18:41:27.544Z,59.30
2019-02-15T18:44:16.992Z,59.07
2019-02-15T18:47:06.394Z,59.33
2019-02-15T18:49:57.243Z,60.36
2019-02-15T18:52:46.574Z,59.85
2019-02-15T18:55:36.754Z,60.71
2019-02-15T18:58:26.503Z,60.98
2019-02-15T19:01:16.594Z,60.78
2019-02-15T19:04:05.931Z,61.20
2019-02-15T19:06:55.488Z,61.80
2019-02-15T19:09:44.648Z,62.44
2019-02-15T19:12:34.330Z,62.36
2019-02-15T19:15:24.493Z,62.21
2019-02-15T19:18:13.958Z,61.96
2019-02-15T19:21:03.303Z,61.44
2019-02-15T19:23:52.667Z,60.92
2019-02-15T19:26:41.863Z,60.72
2019-02-15T19:29:31.978Z,60.95
2019-02-15T19:32:21.539Z,59.87
2019-02-15T19:35:16.910Z,61.13
2019-02-15T19:38:06.349Z,61.97
2019-02-15T19:40:55.876Z,62.92
2019-02-15T19:43:45.290Z,63.55
2019-02-15T19:46:35.005Z,62.91
2019-02-15T19:49:24.405Z,63.16
2019-02-15T19:52:14.058Z,63.63
2019-02-15T19:55:07.314Z,62.57
2019-02-15T19:57:56.773Z,62.87
2019-02-15T20:00:47.130Z,63.42
2019-02-15T20:03:36.626Z,62.77
2019-02-15T20:06:25.823Z,62.54
2019-02-15T20:09:18.869Z,61.61
2019-02-15T20:12:09.022Z,62.78
2019-02-15T20:14:58.568Z,62.26
2019-02-15T20:17:48.285Z,63.37
2019-02-15T20:20:37.752Z,64.49
2019-02-15T20:23:27.378Z,64.75
2019-02-15T20:26:16.584Z,64.93
2019-02-15T20:29:06.346Z,64.66
2019-02-15T20:31:55.973Z,63.38
2019-02-15T20:34:45.667Z,64.88
2019-02-15T20:37:34.940Z,64.65
2019-02-15T20:40:24.314Z,64.43
2019-02-15T20:43:16.316Z,64.79
2019-02-15T20:46:05.742Z,63.48
2019-02-15T20:49:04.364Z,64.80
2019-02-15T20:51:45.763Z,65.01
2019-02-15T20:54:35.647Z,64.16
2019-02-15T20:57:25.250Z,65.12
2019-02-15T21:00:17.965Z,64.76
2019-02-15T21:03:08.732Z,64.54
2019-02-15T21:05:58.008Z,65.04
2019-02-15T21:08:47.635Z,64.86
2019-02-15T21:11:37.115Z,64.83
2019-02-15T21:14:26.845Z,64.90
2019-02-15T21:17:17.150Z,64.03
2019-02-15T21:20:08.358Z,64.56
2019-02-15T21:22:57.939Z,64.82
2019-02-15T21:25:47.385Z,64.60
2019-02-15T21:28:36.555Z,63.90
2019-02-15T21:31:26.021Z,64.02
2019-02-15T21:34:15.709Z,63.72
2019-02-15T21:37:05.286Z,63.76
2019-02-15T21:39:55.288Z,63.49
2019-02-15T21:42:44.662Z,63.66
2019-02-15T21:45:34.081Z,63.68
2019-02-15T21:48:23.519Z,63.58
2019-02-15T21:51:16.803Z,63.36
2019-02-15T21:54:06.419Z,63.24
2019-02-15T21:56:56.039Z,63.55
2019-02-15T21:59:45.232Z,63.51
2019-02-15T22:02:35.249Z,63.00
2019-02-15T22:05:25.623Z,63.18
2019-02-15T22:08:14.859Z,63.64
2019-02-15T22:11:04.013Z,64.25
2019-02-15T22:13:53.439Z,64.07
2019-02-15T22:16:43.478Z,64.69
2019-02-15T22:19:32.898Z,65.05
2019-02-15T22:22:22.142Z,65.15
2019-02-15T22:25:15.993Z,64.98
2019-02-15T22:28:05.688Z,64.46
2019-02-15T22:30:55.021Z,64.60
2019-02-15T22:33:44.427Z,65.62
2019-02-15T22:36:33.684Z,65.68
2019-02-15T22:39:22.767Z,66.15
2019-02-15T22:42:12.367Z,66.10
2019-02-15T22:45:01.904Z,65.54
2019-02-15T22:47:52.074Z,65.32
2019-02-15T22:50:41.419Z,65.19
2019-02-15T22:53:31.108Z,64.92
2019-02-15T22:56:20.353Z,64.66
2019-02-15T22:59:10.276Z,65.12
2019-02-15T23:02:00.266Z,65.61
2019-02-15T23:04:49.818Z,65.27
2019-02-15T23:07:40.155Z,64.69
2019-02-15T23:10:29.829Z,64.35
2019-02-15T23:13:19.297Z,64.65
2019-02-15T23:16:08.901Z,64.25
2019-02-15T23:18:58.289Z,63.98
2019-02-15T23:21:48.077Z,63.33
2019-02-15T23:24:37.284Z,63.96
2019-02-15T23:27:27.396Z,64.32
2019-02-15T23:30:17.018Z,64.10
2019-02-15T23:33:06.206Z,64.07
2019-02-15T23:35:55.894Z,63.54
2019-02-15T23:38:45.068Z,63.31
2019-02-15T23:41:34.669Z,63.30
2019-02-15T23:44:24.117Z,63.24
2019-02-15T23:47:13.609Z,63.18
2019-02-15T23:50:03.401Z,63.00
2019-02-15T23:52:52.811Z,62.92
2019-02-15T23:55:42.424Z,62.34
2019-02-15T23:58:31.966Z,63.05
